createdAt,value
2023-04-27T00:02:20.743Z,57.06
2023-04-27T00:04:48.339Z,56.91
2023-04-27T00:07:15.864Z,57.19
2023-04-27T00:09:43.030Z,56.92
2023-04-27T00:12:10.263Z,57.13
2023-04-27T00:14:38.070Z,57.28
2023-04-27T00:17:05.278Z,57.31
2023-04-27T00:19:32.513Z,57.38
2023-04-27T00:22:00.594Z,57.92
2023-04-27T00:24:27.980Z,57.69
2023-04-27T00:26:55.128Z,57.68
2023-04-27T00:29:22.390Z,57.73
2023-04-27T00:31:49.540Z,57.64
2023-04-27T00:34:16.729Z,57.74
2023-04-27T00:36:44.038Z,57.48
2023-04-27T00:39:13.298Z,57.72
2023-04-27T00:41:40.797Z,57.34
2023-04-27T00:44:08.147Z,57.43
2023-04-27T00:46:37.101Z,57.19
2023-04-27T00:49:04.766Z,57.26
2023-04-27T00:51:32.384Z,56.93
2023-04-27T00:54:01.091Z,56.83
2023-04-27T00:56:28.328Z,56.65
2023-04-27T00:58:55.803Z,56.46
2023-04-27T01:01:23.935Z,56.73
2023-04-27T01:03:51.845Z,56.09
2023-04-27T01:06:19.203Z,56.33
2023-04-27T01:08:47.049Z,56.15
2023-04-27T01:11:14.459Z,56.16
2023-04-27T01:13:41.800Z,56.21
2023-04-27T01:16:09.171Z,56.86
2023-04-27T01:18:40.845Z,56.45
2023-04-27T01:21:08.265Z,56.78
2023-04-27T01:23:36.108Z,56.95
2023-04-27T01:26:04.654Z,57.00
2023-04-27T01:28:31.918Z,57.24
2023-04-27T01:31:01.306Z,57.72
2023-04-27T01:33:28.506Z,57.48
2023-04-27T01:35:56.029Z,57.59
2023-04-27T01:38:24.259Z,57.67
2023-04-27T01:40:51.725Z,57.51
2023-04-27T01:43:22.028Z,57.94
2023-04-27T01:45:49.143Z,57.85
2023-04-27T01:48:16.730Z,57.35
2023-04-27T01:50:44.596Z,57.82
2023-04-27T01:53:11.696Z,57.87
2023-04-27T01:55:38.972Z,57.73
2023-04-27T01:58:06.241Z,57.57
2023-04-27T02:00:33.826Z,57.43
2023-04-27T02:03:01.412Z,57.80
2023-04-27T02:05:29.044Z,57.45
2023-04-27T02:07:56.291Z,57.12
2023-04-27T02:10:23.880Z,57.16
2023-04-27T02:12:57.338Z,57.05
2023-04-27T02:15:24.821Z,57.27
2023-04-27T02:17:52.095Z,56.79
2023-04-27T02:20:19.531Z,57.15
2023-04-27T02:22:46.816Z,57.17
2023-04-27T02:25:14.004Z,56.67
2023-04-27T02:27:43.635Z,57.78
2023-04-27T02:30:12.745Z,58.30
2023-04-27T02:32:41.618Z,58.59
2023-04-27T02:35:09.967Z,58.60
2023-04-27T02:37:37.947Z,58.90
2023-04-27T02:40:08.073Z,59.59
2023-04-27T02:42:39.167Z,60.94
2023-04-27T02:45:08.560Z,61.83
2023-04-27T02:47:37.512Z,62.21
2023-04-27T02:50:05.127Z,62.24
2023-04-27T02:52:34.812Z,62.29
2023-04-27T02:55:01.963Z,61.76
2023-04-27T02:57:32.863Z,61.87
2023-04-27T03:00:00.202Z,61.45
2023-04-27T03:02:27.624Z,61.26
2023-04-27T03:04:55.399Z,61.37
2023-04-27T03:07:23.129Z,61.46
2023-04-27T03:09:50.259Z,61.37
2023-04-27T03:12:17.453Z,61.08
2023-04-27T03:14:44.802Z,60.96
2023-04-27T03:17:12.030Z,60.94
2023-04-27T03:19:40.549Z,60.99
2023-04-27T03:22:07.713Z,61.33
2023-04-27T03:24:35.802Z,61.41
2023-04-27T03:27:02.962Z,61.60
2023-04-27T03:29:30.556Z,61.57
2023-04-27T03:31:57.857Z,61.55
2023-04-27T03:34:24.980Z,61.35
2023-04-27T03:36:52.124Z,61.01
2023-04-27T03:39:19.370Z,60.72
2023-04-27T03:41:46.624Z,60.37
2023-04-27T03:44:13.969Z,60.22
2023-04-27T03:46:42.106Z,59.97
2023-04-27T03:49:09.305Z,59.47
2023-04-27T03:51:38.453Z,59.54
2023-04-27T03:54:05.832Z,59.40
2023-04-27T03:56:33.131Z,59.04
2023-04-27T03:59:01.099Z,58.63
2023-04-27T04:01:34.853Z,58.43
2023-04-27T04:04:02.512Z,58.06
2023-04-27T04:06:32.091Z,58.17
2023-04-27T04:08:59.224Z,57.93
2023-04-27T04:11:27.539Z,58.00
2023-04-27T04:13:57.645Z,57.83
2023-04-27T04:16:24.889Z,57.48
2023-04-27T04:18:53.653Z,57.48
2023-04-27T04:21:21.772Z,57.38
2023-04-27T04:23:48.914Z,57.29
2023-04-27T04:26:16.817Z,57.07
2023-04-27T04:28:44.667Z,56.75
2023-04-27T04:31:11.791Z,56.48
2023-04-27T04:33:39.820Z,56.39
2023-04-27T04:36:07.916Z,56.53
2023-04-27T04:38:35.179Z,56.38
2023-04-27T04:41:02.523Z,56.10
2023-04-27T04:43:32.947Z,56.21
2023-04-27T04:46:04.426Z,56.17
2023-04-27T04:48:32.547Z,55.99
2023-04-27T04:50:59.680Z,55.99
2023-04-27T04:53:27.111Z,55.70
2023-04-27T04:55:56.714Z,55.68
2023-04-27T04:58:23.990Z,55.64
2023-04-27T05:00:51.217Z,55.27
2023-04-27T05:03:18.916Z,55.29
2023-04-27T05:05:47.991Z,55.26
2023-04-27T05:08:16.599Z,54.91
2023-04-27T05:10:49.901Z,54.58
2023-04-27T05:13:17.557Z,54.40
2023-04-27T05:15:44.700Z,54.39
2023-04-27T05:18:12.012Z,53.88
2023-04-27T05:20:39.469Z,53.92
2023-04-27T05:23:06.703Z,53.98
2023-04-27T05:25:37.787Z,53.24
2023-04-27T05:28:05.128Z,53.25
2023-04-27T05:30:32.402Z,53.29
2023-04-27T05:32:59.747Z,53.10
2023-04-27T05:35:26.906Z,53.34
2023-04-27T05:37:54.115Z,53.36
2023-04-27T05:40:21.805Z,53.42
2023-04-27T05:42:49.858Z,52.87
2023-04-27T05:45:17.055Z,53.20
2023-04-27T05:47:44.303Z,53.05
2023-04-27T05:50:11.962Z,53.04
2023-04-27T05:52:53.128Z,52.97
2023-04-27T05:55:20.292Z,53.21
2023-04-27T05:57:54.507Z,52.83
2023-04-27T06:00:32.369Z,52.33
2023-04-27T06:02:59.576Z,52.53
2023-04-27T06:05:26.942Z,52.21
2023-04-27T06:07:54.237Z,52.09
2023-04-27T06:10:21.460Z,52.32
2023-04-27T06:12:48.522Z,52.41
2023-04-27T06:15:16.019Z,52.18
2023-04-27T06:17:46.090Z,51.96
2023-04-27T06:20:13.512Z,51.97
2023-04-27T06:22:40.672Z,51.59
2023-04-27T06:25:08.392Z,52.22
2023-04-27T06:27:35.672Z,52.01
2023-04-27T06:30:03.148Z,51.76
2023-04-27T06:32:32.951Z,51.63
2023-04-27T06:35:00.153Z,51.75
2023-04-27T06:37:27.418Z,51.78
2023-04-27T06:39:54.809Z,51.52
2023-04-27T06:42:22.068Z,51.47
2023-04-27T06:44:52.315Z,51.31
2023-04-27T06:47:19.575Z,50.46
2023-04-27T06:49:48.525Z,49.89
2023-04-27T06:52:17.658Z,48.51
2023-04-27T06:54:46.516Z,49.37
2023-04-27T06:57:13.810Z,49.30
2023-04-27T06:59:41.010Z,49.17
2023-04-27T07:10:17.255Z,48.86
2023-04-27T07:12:45.721Z,48.50
2023-04-27T07:15:13.505Z,48.25
2023-04-27T07:17:40.671Z,47.17
2023-04-27T07:20:08.854Z,46.60
2023-04-27T07:22:36.623Z,45.82
2023-04-27T07:25:05.532Z,46.52
2023-04-27T07:27:33.307Z,45.90
2023-04-27T07:30:00.443Z,46.14
2023-04-27T07:32:29.260Z,46.13
2023-04-27T07:34:57.146Z,45.40
2023-04-27T07:37:24.383Z,45.61
2023-04-27T07:39:54.888Z,45.21
2023-04-27T07:42:25.445Z,45.66
2023-04-27T07:44:52.772Z,45.99
2023-04-27T07:47:20.129Z,45.32
2023-04-27T07:49:47.544Z,46.00
2023-04-27T07:52:14.865Z,46.15
2023-04-27T07:54:42.058Z,45.03
2023-04-27T07:57:11.664Z,45.81
2023-04-27T07:59:39.417Z,45.78
2023-04-27T08:02:17.759Z,45.66
2023-04-27T08:04:49.554Z,45.44
2023-04-27T08:07:17.822Z,45.44
2023-04-27T08:09:45.209Z,45.02
2023-04-27T08:12:12.645Z,45.20
2023-04-27T08:14:39.947Z,45.10
2023-04-27T08:17:07.223Z,44.99
2023-04-27T08:19:34.776Z,44.85
2023-04-27T08:22:02.851Z,45.66
2023-04-27T08:24:30.103Z,45.26
2023-04-27T08:26:57.688Z,44.88
2023-04-27T08:29:28.855Z,45.16
2023-04-27T08:32:00.691Z,45.22
2023-04-27T08:34:29.028Z,45.34
2023-04-27T08:36:57.222Z,45.02
2023-04-27T08:39:25.801Z,45.06
2023-04-27T08:41:53.514Z,45.51
2023-04-27T08:44:20.822Z,45.58
2023-04-27T08:46:48.463Z,45.76
2023-04-27T08:49:17.077Z,45.62
2023-04-27T08:51:44.844Z,45.30
2023-04-27T08:54:13.168Z,45.35
2023-04-27T08:56:41.915Z,44.83
2023-04-27T08:59:15.778Z,44.79
2023-04-27T09:01:49.152Z,45.36
2023-04-27T09:04:18.289Z,44.21
2023-04-27T09:06:46.361Z,43.37
2023-04-27T09:09:23.876Z,42.40
2023-04-27T09:11:51.650Z,43.32
2023-04-27T09:14:21.928Z,43.16
2023-04-27T09:16:57.900Z,42.04
2023-04-27T09:19:29.926Z,42.19
2023-04-27T09:22:11.388Z,42.61
2023-04-27T09:24:39.312Z,42.71
2023-04-27T09:27:08.774Z,42.55
2023-04-27T09:29:37.835Z,42.31
2023-04-27T09:32:19.245Z,41.92
2023-04-27T09:34:47.053Z,41.97
2023-04-27T09:37:14.683Z,42.23
2023-04-27T09:39:42.926Z,41.99
2023-04-27T09:42:12.652Z,41.84
2023-04-27T09:44:39.828Z,42.31
2023-04-27T09:47:07.842Z,42.48
2023-04-27T09:49:36.408Z,42.03
2023-04-27T09:52:04.505Z,42.35
2023-04-27T09:54:34.745Z,41.80
2023-04-27T09:57:13.567Z,41.58
2023-04-27T10:00:11.224Z,41.35
2023-04-27T10:02:53.657Z,40.88
2023-04-27T10:05:37.910Z,41.28
2023-04-27T10:08:06.833Z,40.85
2023-04-27T10:10:44.411Z,40.70
2023-04-27T10:13:24.056Z,40.66
2023-04-27T10:15:52.690Z,40.61
2023-04-27T10:18:33.428Z,40.47
2023-04-27T10:21:10.953Z,40.65
2023-04-27T10:23:51.254Z,40.93
2023-04-27T10:26:27.015Z,41.01
2023-04-27T10:29:07.496Z,40.79
2023-04-27T10:31:35.971Z,40.45
2023-04-27T10:34:11.088Z,40.37
2023-04-27T10:36:41.326Z,40.45
2023-04-27T10:39:36.186Z,40.12
2023-04-27T10:42:13.343Z,39.99
2023-04-27T10:44:40.469Z,39.98
2023-04-27T10:47:20.025Z,39.81
2023-04-27T10:49:47.281Z,39.69
2023-04-27T10:52:14.861Z,39.74
2023-04-27T10:54:47.330Z,39.35
2023-04-27T10:57:14.649Z,39.92
2023-04-27T10:59:53.699Z,40.18
2023-04-27T11:02:29.022Z,39.90
2023-04-27T11:04:56.801Z,40.24
2023-04-27T11:07:28.559Z,39.66
2023-04-27T11:09:56.140Z,39.71
2023-04-27T11:12:24.262Z,39.92
2023-04-27T11:14:57.987Z,39.15
2023-04-27T11:17:30.185Z,39.00
2023-04-27T11:19:57.304Z,39.60
2023-04-27T11:22:24.650Z,39.64
2023-04-27T11:24:53.630Z,40.07
2023-04-27T11:27:23.556Z,40.17
2023-04-27T11:29:51.472Z,40.42
2023-04-27T11:32:23.116Z,40.36
2023-04-27T11:34:53.666Z,40.56
2023-04-27T11:37:24.975Z,40.66
2023-04-27T11:39:54.270Z,40.60
2023-04-27T11:42:24.489Z,40.55
2023-04-27T11:44:53.744Z,40.00
2023-04-27T11:47:22.775Z,40.41
2023-04-27T11:49:52.277Z,40.24
2023-04-27T11:52:19.489Z,40.00
2023-04-27T11:54:48.732Z,40.02
2023-04-27T11:57:16.588Z,40.06
2023-04-27T11:59:43.972Z,40.18
2023-04-27T12:02:11.334Z,39.93
2023-04-27T12:04:38.832Z,40.18
2023-04-27T12:07:06.263Z,39.94
2023-04-27T12:09:34.619Z,39.92
2023-04-27T12:12:02.707Z,39.52
2023-04-27T12:14:30.077Z,39.37
2023-04-27T12:16:57.332Z,39.42
2023-04-27T12:19:26.114Z,39.47
2023-04-27T12:21:54.173Z,39.32
2023-04-27T12:24:21.932Z,39.30
2023-04-27T12:26:49.610Z,39.24
2023-04-27T12:29:16.902Z,39.36
2023-04-27T12:31:44.762Z,39.30
2023-04-27T12:34:13.114Z,39.30
2023-04-27T12:36:41.438Z,39.99
2023-04-27T12:39:16.037Z,39.26
2023-04-27T12:41:48.405Z,38.73
2023-04-27T12:44:17.011Z,39.18
2023-04-27T12:46:45.011Z,38.88
2023-04-27T12:49:15.182Z,38.74
2023-04-27T12:51:42.622Z,38.90
2023-04-27T12:54:11.433Z,38.57
2023-04-27T12:56:38.841Z,38.67
2023-04-27T12:59:08.816Z,38.94
2023-04-27T13:01:36.342Z,38.62
2023-04-27T13:04:06.240Z,38.64
2023-04-27T13:06:33.594Z,38.54
2023-04-27T13:09:01.214Z,38.22
2023-04-27T13:11:28.930Z,38.55
2023-04-27T13:13:56.076Z,38.52
2023-04-27T13:16:25.680Z,38.36
2023-04-27T13:18:55.613Z,38.24
2023-04-27T13:21:23.508Z,38.55
2023-04-27T13:23:51.855Z,38.48
2023-04-27T13:26:19.183Z,38.13
2023-04-27T13:28:46.325Z,38.61
2023-04-27T13:31:13.668Z,38.83
2023-04-27T13:33:43.408Z,38.33
2023-04-27T13:36:11.505Z,38.88
2023-04-27T13:38:39.413Z,38.39
2023-04-27T13:41:07.041Z,38.04
2023-04-27T13:43:34.580Z,38.06
2023-04-27T13:46:03.074Z,38.13
2023-04-27T13:48:31.325Z,38.14
2023-04-27T13:50:58.979Z,38.22
2023-04-27T13:53:26.749Z,38.28
2023-04-27T13:55:55.213Z,38.67
2023-04-27T13:58:25.090Z,39.00
2023-04-27T14:00:53.600Z,38.70
2023-04-27T14:03:21.738Z,39.45
2023-04-27T14:05:51.153Z,39.32
2023-04-27T14:08:18.736Z,39.28
2023-04-27T14:10:46.746Z,39.25
2023-04-27T14:13:14.512Z,39.13
2023-04-27T14:15:42.243Z,39.32
2023-04-27T14:18:09.913Z,39.68
2023-04-27T14:20:39.100Z,39.55
2023-04-27T14:23:07.148Z,39.80
2023-04-27T14:25:35.255Z,40.08
2023-04-27T14:28:04.803Z,40.34
2023-04-27T14:30:35.687Z,40.69
2023-04-27T14:33:03.410Z,40.78
2023-04-27T14:35:30.953Z,41.25
2023-04-27T14:38:02.356Z,41.03
2023-04-27T14:40:33.168Z,41.47
2023-04-27T14:43:00.574Z,41.21
2023-04-27T14:45:36.596Z,41.32
2023-04-27T14:48:07.631Z,41.41
2023-04-27T14:50:35.141Z,41.70
2023-04-27T14:53:02.395Z,41.50
2023-04-27T14:55:29.702Z,41.75
2023-04-27T14:57:56.906Z,41.96
2023-04-27T15:00:24.448Z,42.00
2023-04-27T15:02:51.850Z,42.15
2023-04-27T15:05:19.023Z,42.23
2023-04-27T15:07:46.407Z,42.10
2023-04-27T15:10:13.605Z,42.33
2023-04-27T15:12:40.863Z,42.51
2023-04-27T15:15:10.523Z,42.94
2023-04-27T15:17:38.007Z,42.85
2023-04-27T15:20:06.297Z,42.94
2023-04-27T15:22:33.795Z,43.09
2023-04-27T15:25:00.869Z,43.03
2023-04-27T15:27:28.078Z,43.23
2023-04-27T15:29:55.844Z,43.44
2023-04-27T15:32:24.904Z,43.33
2023-04-27T15:34:52.335Z,43.75
2023-04-27T15:37:19.598Z,43.30
2023-04-27T15:39:46.732Z,43.39
2023-04-27T15:42:13.917Z,43.51
2023-04-27T15:44:41.089Z,43.67
2023-04-27T15:47:08.472Z,43.80
2023-04-27T15:49:45.899Z,43.78
2023-04-27T15:52:21.672Z,43.84
2023-04-27T15:54:48.917Z,44.01
2023-04-27T15:57:16.316Z,44.04
2023-04-27T15:59:43.552Z,44.08
2023-04-27T16:02:10.945Z,43.98
2023-04-27T16:04:38.363Z,44.08
2023-04-27T16:07:08.911Z,43.96
2023-04-27T16:09:36.456Z,44.33
2023-04-27T16:12:04.002Z,44.37
2023-04-27T16:14:31.419Z,44.64
2023-04-27T16:17:02.568Z,44.47
2023-04-27T16:19:29.928Z,44.75
2023-04-27T16:21:57.789Z,44.95
2023-04-27T16:24:27.162Z,45.04
2023-04-27T16:26:54.404Z,44.97
2023-04-27T16:29:21.516Z,45.35
2023-04-27T16:31:53.315Z,45.44
2023-04-27T16:34:20.704Z,45.83
2023-04-27T16:36:48.725Z,46.12
2023-04-27T16:39:16.461Z,46.24
2023-04-27T16:41:43.853Z,46.75
2023-04-27T16:44:12.895Z,46.63
2023-04-27T16:46:40.444Z,46.69
2023-04-27T16:49:08.390Z,47.14
2023-04-27T16:51:36.411Z,47.17
2023-04-27T16:54:04.081Z,47.59
2023-04-27T16:56:35.393Z,47.58
2023-04-27T16:59:04.469Z,48.18
2023-04-27T17:01:31.785Z,48.17
2023-04-27T17:04:02.328Z,48.31
2023-04-27T17:06:30.121Z,48.13
2023-04-27T17:08:58.053Z,48.46
2023-04-27T17:11:25.395Z,48.12
2023-04-27T17:13:52.689Z,47.95
2023-04-27T17:16:20.201Z,47.67
2023-04-27T17:18:47.991Z,47.73
2023-04-27T17:21:16.799Z,47.94
2023-04-27T17:23:46.693Z,47.84
2023-04-27T17:26:16.117Z,47.99
2023-04-27T17:28:43.610Z,48.11
2023-04-27T17:31:10.790Z,48.30
2023-04-27T17:33:39.322Z,49.15
2023-04-27T17:36:09.786Z,49.66
2023-04-27T17:38:37.750Z,49.80
2023-04-27T17:41:05.017Z,50.30
2023-04-27T17:43:32.245Z,50.80
2023-04-27T17:45:59.410Z,50.54
2023-04-27T17:48:26.990Z,50.65
2023-04-27T17:50:54.798Z,50.74
2023-04-27T17:53:21.990Z,50.71
2023-04-27T17:55:49.216Z,50.44
2023-04-27T17:58:17.213Z,50.61
2023-04-27T18:00:44.420Z,50.29
2023-04-27T18:03:15.562Z,50.40
2023-04-27T18:05:43.203Z,50.17
2023-04-27T18:08:11.059Z,50.35
2023-04-27T18:10:38.253Z,50.00
2023-04-27T18:13:05.384Z,49.54
2023-04-27T18:15:32.620Z,49.70
2023-04-27T18:17:59.846Z,49.97
2023-04-27T18:20:28.057Z,49.84
2023-04-27T18:22:55.344Z,49.58
2023-04-27T18:25:23.246Z,49.44
2023-04-27T18:27:55.258Z,49.42
2023-04-27T18:30:23.053Z,49.40
2023-04-27T18:32:51.986Z,49.58
2023-04-27T18:35:19.178Z,49.39
2023-04-27T18:37:48.626Z,49.22
2023-04-27T18:40:20.223Z,49.02
2023-04-27T18:42:48.282Z,49.29
2023-04-27T18:45:15.976Z,49.33
2023-04-27T18:47:43.239Z,49.06
2023-04-27T18:50:13.811Z,49.02
2023-04-27T18:52:41.233Z,48.83
2023-04-27T18:55:09.516Z,48.83
2023-04-27T18:57:37.209Z,49.03
2023-04-27T19:00:06.252Z,48.56
2023-04-27T19:02:34.173Z,48.75
2023-04-27T19:07:34.766Z,48.75
2023-04-27T19:10:01.885Z,48.66
2023-04-27T19:12:30.984Z,48.52
2023-04-27T19:14:58.144Z,48.65
2023-04-27T19:17:26.415Z,49.24
2023-04-27T19:19:53.893Z,49.04
2023-04-27T19:22:21.212Z,49.48
2023-04-27T19:24:48.641Z,49.29
2023-04-27T19:27:16.049Z,49.31
2023-04-27T19:29:54.618Z,49.11
2023-04-27T19:32:26.803Z,49.13
2023-04-27T19:34:58.617Z,50.49
2023-04-27T19:37:28.724Z,49.74
2023-04-27T19:39:56.050Z,49.76
2023-04-27T19:42:25.039Z,50.07
2023-04-27T19:44:52.248Z,49.90
2023-04-27T19:47:19.561Z,50.13
2023-04-27T19:49:48.743Z,49.76
2023-04-27T19:52:15.994Z,49.84
2023-04-27T19:54:43.254Z,49.99
2023-04-27T19:57:10.809Z,50.65
2023-04-27T19:59:38.112Z,50.35
2023-04-27T20:02:05.507Z,50.70
2023-04-27T20:04:33.057Z,50.87
2023-04-27T20:07:02.168Z,51.20
2023-04-27T20:09:30.528Z,50.59
2023-04-27T20:11:57.664Z,52.04
2023-04-27T20:14:25.290Z,51.05
2023-04-27T20:16:52.474Z,51.63
2023-04-27T20:19:20.885Z,51.22
2023-04-27T20:21:48.567Z,52.16
2023-04-27T20:24:16.604Z,51.99
2023-04-27T20:26:44.088Z,53.13
2023-04-27T20:29:11.681Z,53.35
2023-04-27T20:31:39.074Z,52.43
2023-04-27T20:34:06.348Z,53.19
2023-04-27T20:36:33.901Z,53.91
2023-04-27T20:39:01.081Z,52.81
2023-04-27T20:41:28.576Z,53.46
2023-04-27T20:43:55.773Z,52.25
2023-04-27T20:46:23.035Z,53.08
2023-04-27T20:48:50.192Z,52.59
2023-04-27T20:51:18.058Z,53.96
2023-04-27T20:53:45.192Z,53.16
2023-04-27T20:56:12.325Z,53.83
2023-04-27T20:58:39.556Z,54.09
2023-04-27T21:01:06.884Z,54.28
2023-04-27T21:03:34.320Z,54.06
2023-04-27T21:06:01.560Z,53.14
2023-04-27T21:08:29.066Z,53.77
2023-04-27T21:10:57.351Z,52.94
2023-04-27T21:13:24.866Z,53.69
2023-04-27T21:15:52.172Z,53.04
2023-04-27T21:18:29.583Z,53.86
2023-04-27T21:20:58.220Z,52.84
2023-04-27T21:23:25.462Z,53.03
2023-04-27T21:25:52.692Z,53.75
2023-04-27T21:28:20.603Z,53.90
2023-04-27T21:30:47.974Z,53.48
2023-04-27T21:33:15.256Z,53.10
2023-04-27T21:35:42.487Z,53.68
2023-04-27T21:38:09.679Z,53.38
2023-04-27T21:40:37.173Z,53.72
2023-04-27T21:43:04.314Z,53.81
2023-04-27T21:45:34.869Z,53.70
2023-04-27T21:48:02.522Z,53.32
2023-04-27T21:50:30.023Z,53.50
2023-04-27T21:52:57.127Z,53.64
2023-04-27T21:55:24.425Z,53.45
2023-04-27T21:57:51.507Z,54.46
2023-04-27T22:00:19.135Z,55.05
2023-04-27T22:02:48.638Z,54.74
2023-04-27T22:05:16.543Z,55.48
2023-04-27T22:07:46.088Z,55.98
2023-04-27T22:10:13.606Z,56.59
2023-04-27T22:12:41.194Z,56.17
2023-04-27T22:15:08.823Z,55.74
2023-04-27T22:17:36.102Z,56.82
2023-04-27T22:20:05.170Z,56.06
2023-04-27T22:22:32.452Z,56.09
2023-04-27T22:24:59.907Z,56.62
2023-04-27T22:27:35.363Z,57.38
2023-04-27T22:30:10.260Z,57.67
2023-04-27T22:32:37.952Z,57.19
2023-04-27T22:35:08.762Z,57.64
2023-04-27T22:37:40.882Z,56.66
2023-04-27T22:40:08.967Z,57.15
2023-04-27T22:42:36.040Z,56.66
2023-04-27T22:45:03.565Z,57.25
2023-04-27T22:47:33.449Z,57.50
2023-04-27T22:50:01.450Z,57.30
2023-04-27T22:52:33.836Z,57.37
2023-04-27T22:55:03.829Z,58.33
2023-04-27T22:57:31.639Z,57.76
2023-04-27T22:59:58.716Z,58.54
2023-04-27T23:02:26.098Z,58.80
2023-04-27T23:04:53.258Z,58.23
2023-04-27T23:07:20.749Z,59.37
2023-04-27T23:09:48.334Z,59.88
2023-04-27T23:12:15.911Z,59.51
2023-04-27T23:14:43.140Z,60.05
2023-04-27T23:17:10.482Z,59.83
2023-04-27T23:19:37.869Z,60.61
2023-04-27T23:22:05.269Z,60.08
2023-04-27T23:24:32.458Z,60.02
2023-04-27T23:26:59.789Z,59.96
2023-04-27T23:29:26.879Z,59.86
2023-04-27T23:31:54.125Z,60.63
2023-04-27T23:34:21.391Z,60.69
2023-04-27T23:36:48.475Z,60.60
2023-04-27T23:39:15.865Z,60.27
2023-04-27T23:41:43.057Z,60.98
2023-04-27T23:44:10.215Z,61.01
2023-04-27T23:46:37.503Z,61.36
2023-04-27T23:49:04.655Z,61.64
2023-04-27T23:51:33.312Z,61.33
2023-04-27T23:54:00.486Z,62.27
2023-04-27T23:56:27.690Z,62.25
2023-04-27T23:58:54.868Z,62.40
